This demonstration page uses our WeatherBlox Daily Observations layout. Learn more.

38.88101, -77.10428

Hourly Observations for March 8, 2017

Temp ( °F °C ) Dew Point ( °F °C ) Humidity (%) Winds ( mph kmh ) Pressure ( in mb ) Visibility ( mi km ) Precip ( " mm )
12:52 am 00:52 Cloudy 61 16.1 52 11.1 72 72 S 12 19 29.97 1015 10 16.09344 0 0
1:52 am 01:52 Cloudy 62 16.7 53 11.7 73 73 SSW 14 22 29.94 1014 10 16.09344 0 0
2:52 am 02:52 Cloudy 63 17.2 53 11.7 70 70 SW 16 26 29.94 1014 10 16.09344 0 0
3:36 am 03:36 Cloudy with Light Rain 59 15 46 8 63 63 WNW 26 43 30 1016 10 16.09344 0 0
3:49 am 03:49 Cloudy with Light Rain 55 13 43 6 63 63 WNW 23 37 30.03 1017 10 16.09344 0.001 0.001
3:52 am 03:52 Cloudy with Light Rain 55 12.8 43 6.1 64 64 NW 17 28 30 1016 10 16.09344 0.001 0.001
4:52 am 04:52 Cloudy with Light Rain 50 10 42 5.6 74 74 NW 21 33 30.06 1018 10 16.09344 0.001 0.001
5:52 am 05:52 Cloudy 51 10.6 39 3.9 64 64 WNW 9 15 30.09 1019 10 16.09344 0.01 0.254
6:52 am 06:52 Cloudy with Light Rain 51 10.6 36 2.2 56 56 NW 12 19 30.12 1020 10 16.09344 0.001 0.001
7:52 am 07:52 Mostly Cloudy 52 11.1 33 0.6 49 49 WNW 8 13 30.15 1021 10 16.09344 0.001 0.001
8:52 am 08:52 Partly Cloudy 55 12.8 33 0.6 44 44 WNW 12 19 30.15 1021 10 16.09344 0 0
9:52 am 09:52 Mostly Sunny 58 14.4 27 -2.8 31 31 NW 12 19 30.12 1020 10 16.09344 0 0
10:52 am 10:52 Mostly Sunny 59 15 24 -4.4 26 26 WNW 14 22 30.15 1021 10 16.09344 0 0
11:52 am 11:52 Mostly Sunny 62 16.7 23 -5 22 22 W 16 26 30.12 1020 10 16.09344 0 0
12:52 pm 12:52 Mostly Sunny 64 17.8 19 -7.2 18 18 SW 17 28 30.06 1018 10 16.09344 0 0
1:52 pm 13:52 Partly Cloudy 66 18.9 19 -7.2 16 16 WSW 15 24 30.03 1017 10 16.09344 0 0
2:52 pm 14:52 Mostly Cloudy 66 18.9 20 -6.7 17 17 SW 15 24 30 1016 10 16.09344 0 0
3:52 pm 15:52 Mostly Cloudy 67 19.4 17 -8.3 15 15 SW 17 28 30 1016 10 16.09344 0 0
4:52 pm 16:52 Partly Cloudy 67 19.4 18 -7.8 15 15 SW 18 30 30 1016 10 16.09344 0 0
5:52 pm 17:52 Partly Cloudy 65 18.3 17 -8.3 16 16 SW 12 19 30 1016 10 16.09344 0 0
6:52 pm 18:52 Mostly Clear 61 16.1 19 -7.2 20 20 WSW 8 13 30 1016 10 16.09344 0 0
7:52 pm 19:52 Mostly Clear 60 15.6 19 -7.2 20 20 WSW 7 11 30.03 1017 10 16.09344 0 0
8:52 pm 20:52 Mostly Clear 60 15.6 16 -8.9 18 18 WSW 8 13 30.06 1018 10 16.09344 0 0
9:52 pm 21:52 Mostly Clear 59 15 15 -9.4 18 18 W 9 15 30.09 1019 10 16.09344 0 0
10:52 pm 22:52 Clear 58 14.4 14 -10 18 18 WSW 7 11 30.09 1019 10 16.09344 0 0
11:52 pm 23:52 Clear 56 13.3 16 -8.9 21 21 WSW 6 9 30.09 1019 10 16.09344 0 0

Powered by AerisWeather